createdAt,value
2024-03-29T00:08:53.861Z,102.23
2024-03-29T00:23:53.707Z,118.49
2024-03-29T00:38:53.536Z,1000.00
2024-03-29T00:53:53.389Z,1000.00
2024-03-29T01:08:53.239Z,1000.00
2024-03-29T01:23:53.252Z,1000.00
2024-03-29T01:38:53.050Z,1000.00
2024-03-29T01:53:52.758Z,832.32
2024-03-29T02:08:52.626Z,1000.00
2024-03-29T02:23:52.449Z,1000.00
2024-03-29T02:38:52.274Z,1000.00
2024-03-29T02:53:52.401Z,1000.00
2024-03-29T03:08:51.975Z,1000.00
2024-03-29T03:23:51.819Z,566.11
2024-03-29T03:38:51.645Z,317.24
2024-03-29T03:53:51.506Z,725.28
2024-03-29T04:08:51.360Z,59.18
2024-03-29T04:23:51.404Z,55.82
2024-03-29T04:38:51.031Z,47.94
2024-03-29T04:53:50.882Z,222.16
2024-03-29T05:08:50.725Z,825.25
2024-03-29T05:23:50.553Z,764.33
2024-03-29T05:38:50.541Z,804.08
2024-03-29T05:53:50.233Z,105.08
2024-03-29T06:08:50.062Z,50.85
2024-03-29T06:23:49.933Z,21.65
2024-03-29T06:38:49.734Z,0.70
2024-03-29T06:53:49.592Z,0.62
2024-03-29T07:08:49.627Z,0.93
2024-03-29T07:23:49.282Z,0.32
2024-03-29T07:38:49.108Z,1.38
2024-03-29T07:53:48.964Z,0.91
2024-03-29T08:08:48.763Z,78.98
2024-03-29T08:23:48.635Z,0.19
2024-03-29T08:38:48.658Z,275.67
2024-03-29T08:53:48.296Z,4.29
2024-03-29T09:08:48.159Z,21.29
2024-03-29T09:23:47.990Z,3.70
2024-03-29T09:38:47.790Z,108.42
2024-03-29T09:53:47.658Z,1000.00
2024-03-29T10:08:47.685Z,168.27
2024-03-29T10:23:49.684Z,92.60
2024-03-29T10:38:47.302Z,24.80
2024-03-29T10:53:49.247Z,64.60
2024-03-29T11:08:46.954Z,25.74
2024-03-29T11:23:47.003Z,140.03
2024-03-29T11:38:46.643Z,126.98
2024-03-29T11:53:46.925Z,381.92
2024-03-29T12:08:46.356Z,889.77
2024-03-29T12:23:46.174Z,1000.00
2024-03-29T12:38:45.988Z,1000.00
2024-03-29T12:53:46.051Z,1000.00
2024-03-29T13:08:45.673Z,231.16
2024-03-29T13:23:45.542Z,36.53
2024-03-29T13:38:55.404Z,1000.00
2024-03-29T13:53:46.225Z,344.91
2024-03-29T14:08:45.228Z,252.91
2024-03-29T14:23:44.922Z,0.28
2024-03-29T14:38:44.704Z,0.16
2024-03-29T14:53:44.566Z,0.16
2024-03-29T15:08:44.374Z,0.16
2024-03-29T15:23:44.539Z,0.16
2024-03-29T15:38:44.055Z,0.16
2024-03-29T15:53:45.088Z,0.16
2024-03-29T16:08:43.734Z,0.16
2024-03-29T16:23:43.792Z,2.88
2024-03-29T16:38:43.434Z,7.00
2024-03-29T16:53:45.295Z,41.88
2024-03-29T17:08:43.091Z,95.55
2024-03-29T17:23:42.941Z,1000.00
2024-03-29T17:38:42.778Z,1000.00
2024-03-29T17:53:42.811Z,1000.00
2024-03-29T18:08:42.447Z,1000.00
2024-03-29T18:23:42.328Z,1000.00
2024-03-29T18:38:42.118Z,150.10
2024-03-29T18:53:42.025Z,288.05
2024-03-29T19:08:41.806Z,63.42
2024-03-29T19:23:41.854Z,67.13
2024-03-29T19:38:41.492Z,6.93
2024-03-29T19:53:41.367Z,11.34
2024-03-29T20:08:41.164Z,31.30
2024-03-29T20:23:40.996Z,144.01
2024-03-29T20:38:40.863Z,969.76
2024-03-29T20:53:40.854Z,253.51
2024-03-29T21:08:40.536Z,39.23
2024-03-29T21:23:40.392Z,8.30
2024-03-29T21:38:40.222Z,196.25
2024-03-29T21:53:40.265Z,158.35
2024-03-29T22:08:39.880Z,48.84
2024-03-29T22:23:39.797Z,10.38
2024-03-29T22:38:39.516Z,1.01
2024-03-29T22:53:39.390Z,4.57
2024-03-29T23:08:39.222Z,373.03
2024-03-29T23:23:39.273Z,1000.00
2024-03-29T23:38:38.901Z,1000.00
2024-03-29T23:53:38.789Z,1000.00
